Terminal Aerodrome Forecast
Issued by NWS

Home | Current Version | Previous Version | Graphics & Text | Print | Product List | Glossary On
Versions: 1 2 3 4 5 6 7 8 9 10 11 12 13 14 15 16 17 18 19 20 21 22 23
464
FTUS43 KICT 241736
TAFRSL
TAF
KRSL 241736Z 2418/2518 VRB04KT P6SM VCSH SCT035 OVC100
     FM242200 04009KT P6SM VCTS SCT030 OVC090CB
     FM250300 03009KT P6SM VCSH SCT020 BKN050
      TEMPO 2508/2512 5SM BR OVC015=

USA.gov is the U.S. government's official web portal to all federal, state and local government web resources and services.